Time;durP1;ratioP1;P1;durP2;ratioP2;P2;SDS_P1;SDS_P2;PMS_P1;PMS_P2;Temp;Humidity;BMP_temperature;BMP_pressure;BME280_temperature;BME280_humidity;BME280_pressure;Samples;Min_cycle;Max_cycle;Signal;HPM_P1;HPM_P2
2024/04/17 00:01:49;;;;;;;4.40;2.60;;;;;;;12.13;97.88;98820.08;1755946;82;21014;-75
2024/04/17 00:04:18;;;;;;;6.17;2.90;;;;;;;11.96;96.78;98766.52;1756027;80;20993;-75
2024/04/17 00:06:47;;;;;;;6.17;2.45;;;;;;;11.83;95.59;98724.30;1756028;80;21025;-75
2024/04/17 00:09:15;;;;;;;4.85;2.45;;;;;;;11.74;95.24;98738.09;1756221;81;21116;-78
2024/04/17 00:11:44;;;;;;;3.95;2.58;;;;;;;11.68;94.60;98716.55;1770526;80;21060;-78
2024/04/17 00:14:12;;;;;;;3.80;2.40;;;;;;;11.62;94.13;98684.63;1780669;80;21060;-78
2024/04/17 00:16:41;;;;;;;3.40;2.15;;;;;;;11.51;93.05;98697.86;1780456;80;21012;-80
2024/04/17 00:19:09;;;;;;;3.83;2.30;;;;;;;11.41;93.34;98722.34;1780548;80;21016;-78
2024/04/17 00:21:37;;;;;;;5.78;2.50;;;;;;;11.35;93.43;98707.70;1780795;80;21032;-78
2024/04/17 00:24:06;;;;;;;3.15;2.15;;;;;;;11.30;93.18;98705.39;1780539;80;21507;-77
2024/04/17 00:26:34;;;;;;;2.90;1.87;;;;;;;11.21;92.97;98715.08;1780422;80;21529;-77
2024/04/17 00:29:02;;;;;;;3.12;1.80;;;;;;;11.13;92.72;98701.76;1780654;80;21108;-78
2024/04/17 00:31:31;;;;;;;3.85;1.60;;;;;;;11.03;92.14;98704.55;1781262;80;21104;-77
2024/04/17 00:33:59;;;;;;;2.75;1.60;;;;;;;10.96;91.54;98711.23;1780990;80;21112;-76
2024/04/17 00:36:27;;;;;;;3.60;1.85;;;;;;;10.85;90.90;98707.98;1780597;80;21464;-77
2024/04/17 00:38:56;;;;;;;2.62;1.62;;;;;;;10.73;91.07;98718.42;1780678;80;21068;-77
2024/04/17 00:41:24;;;;;;;2.37;1.45;;;;;;;10.68;91.36;98727.90;1780544;80;21016;-76
2024/04/17 00:43:52;;;;;;;2.58;1.10;;;;;;;10.67;91.48;98732.25;1780494;80;21032;-76
2024/04/17 00:46:21;;;;;;;2.25;1.50;;;;;;;10.64;91.37;98745.05;1780524;80;21084;-75
2024/04/17 00:48:49;;;;;;;2.62;1.30;;;;;;;10.57;91.07;98769.81;1780508;80;21001;-77
2024/04/17 00:51:18;;;;;;;3.72;1.40;;;;;;;10.52;91.25;98791.59;1780634;80;21076;-77
2024/04/17 00:53:46;;;;;;;2.65;1.42;;;;;;;10.46;91.38;98794.75;1780573;80;21021;-77
2024/04/17 00:56:14;;;;;;;1.90;1.10;;;;;;;10.41;91.59;98765.05;1780575;80;21016;-76
2024/04/17 00:58:43;;;;;;;1.75;1.07;;;;;;;10.33;90.82;98775.78;1780401;80;21048;-76
2024/04/17 01:01:11;;;;;;;2.72;1.27;;;;;;;10.29;91.06;98794.28;1780481;80;21064;-74
2024/04/17 01:03:39;;;;;;;1.25;1.10;;;;;;;10.30;91.33;98773.51;1780687;80;21044;-76
2024/04/17 01:06:08;;;;;;;2.15;1.20;;;;;;;10.33;91.62;98707.88;1780450;80;20993;-79
2024/04/17 01:08:36;;;;;;;2.58;1.27;;;;;;;10.35;91.69;98662.77;1780536;80;21037;-81
2024/04/17 01:11:05;;;;;;;2.15;1.30;;;;;;;10.31;91.10;98701.27;1758329;81;21044;-84
2024/04/17 01:13:34;;;;;;;3.75;1.32;;;;;;;10.26;91.30;98687.46;1764507;81;21025;-80
2024/04/17 01:16:02;;;;;;;2.75;1.20;;;;;;;10.24;91.42;98697.81;1764232;81;21121;-83
2024/04/17 01:18:31;;;;;;;1.70;1.40;;;;;;;10.23;91.91;98690.67;1764417;81;21267;-83
2024/04/17 01:21:02;;;;;;;5.90;1.70;;;;;;;10.21;92.06;98680.50;1764154;81;21070;-81
2024/04/17 01:23:30;;;;;;;1.82;1.37;;;;;;;10.18;92.49;98679.58;1764243;81;21080;-84
2024/04/17 01:25:59;;;;;;;1.95;1.40;;;;;;;10.18;92.99;98670.00;1764193;81;21029;-85
2024/04/17 01:28:27;;;;;;;2.75;1.45;;;;;;;10.17;93.48;98677.91;1764382;81;21057;-84
2024/04/17 01:30:56;;;;;;;3.20;1.52;;;;;;;10.16;93.96;98678.98;1767789;80;21037;-79
2024/04/17 01:33:24;;;;;;;2.27;1.60;;;;;;;10.12;94.31;98661.38;1767093;80;21084;-80
2024/04/17 01:35:52;;;;;;;1.90;1.50;;;;;;;10.11;94.92;98655.59;1764489;81;21064;-81
2024/04/17 01:38:20;;;;;;;3.05;1.98;;;;;;;10.09;95.46;98657.73;1763998;81;21069;-79
2024/04/17 01:40:48;;;;;;;3.12;1.57;;;;;;;10.04;95.92;98644.77;1763810;81;21010;-80
2024/04/17 01:43:17;;;;;;;3.58;1.57;;;;;;;10.07;96.46;98646.20;1764274;81;21028;-80
2024/04/17 01:45:48;;;;;;;1.72;1.35;;;;;;;10.02;96.66;98625.02;1764237;81;21042;-80
2024/04/17 01:48:16;;;;;;;1.50;1.40;;;;;;;9.97;97.11;98618.59;1763721;81;21057;-80
2024/04/17 01:50:44;;;;;;;2.52;1.60;;;;;;;9.98;97.74;98611.52;1763797;80;21037;-81
2024/04/17 01:53:12;;;;;;;1.98;1.70;;;;;;;10.00;98.17;98599.80;1763888;81;21080;-79
2024/04/17 01:55:40;;;;;;;2.20;1.50;;;;;;;10.02;98.45;98624.19;1763906;81;21030;-78
2024/04/17 01:58:09;;;;;;;2.05;1.85;;;;;;;10.01;98.70;98638.41;1763877;81;21160;-79
2024/04/17 02:00:37;;;;;;;2.80;1.62;;;;;;;9.98;98.77;98644.88;1763841;81;21022;-79
2024/04/17 02:03:05;;;;;;;3.62;1.70;;;;;;;9.92;98.84;98631.63;1763892;81;21026;-78
2024/04/17 02:05:34;;;;;;;4.03;1.87;;;;;;;9.87;98.91;98621.09;1763751;81;21076;-77
2024/04/17 02:08:02;;;;;;;3.37;1.80;;;;;;;9.82;98.97;98617.70;1764017;81;21057;-77
2024/04/17 02:10:31;;;;;;;3.00;1.80;;;;;;;9.77;99.22;98626.61;1764491;81;21005;-75
2024/04/17 02:12:59;;;;;;;2.22;1.70;;;;;;;9.76;99.36;98632.32;1771076;80;21539;-77
2024/04/17 02:15:28;;;;;;;1.87;1.52;;;;;;;9.77;99.52;98638.09;1780705;80;21004;-77
2024/04/17 02:17:56;;;;;;;4.50;1.95;;;;;;;9.74;99.52;98634.42;1780139;80;21020;-77
2024/04/17 02:20:25;;;;;;;1.90;1.72;;;;;;;9.73;99.84;98634.95;1780635;80;21012;-76
2024/04/17 02:22:53;;;;;;;2.33;1.70;;;;;;;9.77;100.00;98643.55;1780044;80;21177;-76
2024/04/17 02:25:21;;;;;;;3.33;2.10;;;;;;;9.76;100.00;98650.09;1780547;80;21029;-75
2024/04/17 02:27:49;;;;;;;4.60;2.00;;;;;;;9.72;100.00;98656.53;1780380;80;21063;-75
2024/04/17 02:30:18;;;;;;;2.45;1.72;;;;;;;9.70;100.00;98657.84;1780412;80;21060;-75
2024/04/17 02:32:46;;;;;;;2.45;1.70;;;;;;;9.71;100.00;98664.97;1780363;80;21518;-75
2024/04/17 02:35:14;;;;;;;2.72;1.70;;;;;;;9.70;100.00;98668.24;1780546;80;21088;-76
2024/04/17 02:37:43;;;;;;;2.00;1.57;;;;;;;9.70;100.00;98669.61;1780506;80;21020;-75
2024/04/17 02:40:12;;;;;;;2.55;1.85;;;;;;;9.66;100.00;98658.84;1780761;80;21025;-75
2024/04/17 02:42:40;;;;;;;3.22;1.67;;;;;;;9.64;99.96;98655.51;1780397;80;21008;-75
2024/04/17 02:45:09;;;;;;;2.98;2.02;;;;;;;9.63;100.00;98658.48;1780326;80;21086;-76
2024/04/17 02:47:37;;;;;;;3.42;1.80;;;;;;;9.63;99.86;98663.95;1780578;80;21040;-76
2024/04/17 02:50:06;;;;;;;3.40;1.70;;;;;;;9.59;99.52;98673.15;1761031;80;21061;-74
2024/04/17 02:52:34;;;;;;;2.00;1.80;;;;;;;9.56;99.45;98670.05;1780336;80;21083;-75
2024/04/17 02:55:03;;;;;;;4.87;2.17;;;;;;;9.54;99.28;98653.88;1780569;80;21472;-75
2024/04/17 02:57:31;;;;;;;3.17;1.90;;;;;;;9.57;99.44;98662.98;1780436;80;21100;-76
2024/04/17 02:59:59;;;;;;;2.45;2.10;;;;;;;9.57;99.47;98675.28;1780544;80;21024;-76
2024/04/17 03:02:28;;;;;;;1.90;1.70;;;;;;;9.56;99.16;98674.15;1780743;80;21033;-76
2024/04/17 03:04:56;;;;;;;2.10;1.90;;;;;;;9.57;99.13;98668.98;1780532;80;21020;-76
2024/04/17 03:07:25;;;;;;;2.98;2.15;;;;;;;9.55;99.03;98677.42;1780508;80;21076;-76
2024/04/17 03:09:53;;;;;;;3.15;1.95;;;;;;;9.54;99.07;98685.32;1780459;80;21033;-75
2024/04/17 03:12:22;;;;;;;5.60;2.33;;;;;;;9.52;98.66;98701.95;1780553;80;21056;-75
2024/04/17 03:14:50;;;;;;;2.42;2.10;;;;;;;9.49;98.53;98714.72;1775105;80;21025;-73
2024/04/17 03:17:18;;;;;;;7.80;2.33;;;;;;;9.49;98.60;98724.29;1774579;80;21076;-73
2024/04/17 03:19:46;;;;;;;2.77;2.00;;;;;;;9.49;98.52;98738.49;1774680;81;21001;-77
2024/04/17 03:22:15;;;;;;;2.30;2.10;;;;;;;9.52;98.72;98742.97;1774573;80;21037;-77
2024/04/17 03:24:43;;;;;;;2.25;1.82;;;;;;;9.53;98.68;98746.00;1774350;80;21020;-76
2024/04/17 03:27:11;;;;;;;3.00;1.90;;;;;;;9.54;98.37;98753.13;1774523;81;21036;-79
2024/04/17 03:29:39;;;;;;;3.95;2.08;;;;;;;9.52;98.16;98761.27;1774576;81;21021;-82
2024/04/17 03:32:08;;;;;;;2.62;2.10;;;;;;;9.53;98.18;98760.20;1774774;80;21005;-82
2024/04/17 03:34:36;;;;;;;2.70;1.95;;;;;;;9.53;98.15;98765.67;1774802;81;20985;-81
2024/04/17 03:37:04;;;;;;;5.60;2.25;;;;;;;9.53;98.16;98777.44;1774623;81;21033;-81
2024/04/17 03:39:32;;;;;;;3.40;2.00;;;;;;;9.49;97.93;98775.39;1774677;80;21371;-83
2024/04/17 03:42:01;;;;;;;3.55;2.40;;;;;;;9.48;98.24;98773.73;1774776;80;21028;-83
2024/04/17 03:44:29;;;;;;;4.12;2.40;;;;;;;9.50;98.51;98786.10;1774774;81;21017;-82
2024/04/17 03:46:58;;;;;;;2.72;1.85;;;;;;;9.51;98.78;98791.04;1775089;80;21530;-82
2024/04/17 03:49:27;;;;;;;3.92;2.22;;;;;;;9.50;98.71;98813.97;1777169;81;21041;-79
2024/04/17 03:51:55;;;;;;;2.87;2.22;;;;;;;9.43;98.76;98813.22;1778519;81;21069;-82
2024/04/17 03:54:23;;;;;;;2.60;2.08;;;;;;;9.40;99.11;98804.11;1775657;81;21017;-83
2024/04/17 03:56:52;;;;;;;4.35;2.50;;;;;;;9.38;99.34;98794.78;1774858;81;21048;-84
2024/04/17 03:59:20;;;;;;;4.20;2.83;;;;;;;9.41;99.79;98781.18;1774923;80;21060;-80
2024/04/17 04:01:48;;;;;;;4.20;2.60;;;;;;;9.43;100.00;98781.78;1774893;81;21490;-83
2024/04/17 04:04:16;;;;;;;5.17;2.40;;;;;;;9.40;100.00;98769.41;1774907;81;21005;-80
2024/04/17 04:06:45;;;;;;;3.58;2.50;;;;;;;9.39;100.00;98760.08;1774693;80;21456;-82
2024/04/17 04:09:13;;;;;;;3.45;2.72;;;;;;;9.37;100.00;98760.84;1774833;81;21056;-80
2024/04/17 04:11:42;;;;;;;5.47;2.42;;;;;;;9.34;99.98;98769.50;1774979;80;21021;-79
2024/04/17 04:14:10;;;;;;;3.52;2.50;;;;;;;9.33;100.00;98759.63;1770904;80;21394;-82
2024/04/17 04:16:38;;;;;;;3.95;2.52;;;;;;;9.28;99.95;98758.95;1766708;80;21002;-79
2024/04/17 04:19:07;;;;;;;4.55;2.65;;;;;;;9.27;100.00;98744.16;1766878;81;21005;-79
2024/04/17 04:21:35;;;;;;;3.98;2.85;;;;;;;9.25;100.00;98737.55;1767163;81;21044;-80
2024/04/17 04:24:03;;;;;;;4.33;3.08;;;;;;;9.25;100.00;98718.95;1766623;81;21021;-80
2024/04/17 04:26:31;;;;;;;4.50;2.52;;;;;;;9.23;100.00;98723.28;1766687;81;21069;-78
2024/04/17 04:29:00;;;;;;;4.80;2.80;;;;;;;9.16;100.00;98724.73;1745511;81;21029;-84
2024/04/17 04:31:29;;;;;;;3.25;2.60;;;;;;;9.13;100.00;98711.53;1767125;80;21457;-84
2024/04/17 04:33:58;;;;;;;4.20;2.87;;;;;;;9.12;100.00;98705.77;1767342;81;21052;-82
2024/04/17 04:36:26;;;;;;;6.87;3.10;;;;;;;9.09;100.00;98704.83;1767395;81;21040;-83
2024/04/17 04:38:55;;;;;;;4.60;2.90;;;;;;;9.09;100.00;98710.83;1745570;81;21037;-82
2024/04/17 04:41:23;;;;;;;3.05;2.67;;;;;;;9.08;100.00;98688.67;1766960;81;21422;-82
2024/04/17 04:43:52;;;;;;;5.72;2.65;;;;;;;9.08;100.00;98688.14;1766652;81;21009;-83
2024/04/17 04:46:20;;;;;;;5.50;2.60;;;;;;;9.06;100.00;98705.29;1766608;81;20993;-80
2024/04/17 04:48:49;;;;;;;2.52;2.25;;;;;;;9.06;100.00;98721.68;1766645;81;21611;-84
2024/04/17 04:51:17;;;;;;;6.70;2.55;;;;;;;9.07;100.00;98728.81;1766884;80;21040;-82
2024/04/17 04:53:46;;;;;;;2.12;1.70;;;;;;;9.06;100.00;98721.68;1766615;80;21518;-80
2024/04/17 04:56:14;;;;;;;4.20;1.70;;;;;;;9.08;100.00;98714.63;1766522;81;21093;-81
2024/04/17 04:58:43;;;;;;;2.37;1.80;;;;;;;9.03;100.00;98718.58;1766610;80;21497;-83
2024/04/17 05:01:11;;;;;;;2.65;1.72;;;;;;;9.03;100.00;98723.50;1766985;80;21473;-84
2024/04/17 05:03:40;;;;;;;4.70;2.60;;;;;;;9.06;100.00;98715.38;1766905;80;20978;-80
2024/04/17 05:06:09;;;;;;;2.02;1.70;;;;;;;9.06;100.00;98714.85;1766687;81;21041;-83
2024/04/17 05:08:37;;;;;;;3.25;2.05;;;;;;;9.06;100.00;98724.41;1745256;81;21057;-82
2024/04/17 05:11:06;;;;;;;3.15;1.85;;;;;;;9.06;100.00;98719.48;1766918;80;21029;-82
2024/04/17 05:13:34;;;;;;;4.15;1.82;;;;;;;9.07;100.00;98723.88;1767734;80;21515;-81
2024/04/17 05:16:03;;;;;;;2.67;1.80;;;;;;;9.07;100.00;98731.55;1780672;80;21052;-81
2024/04/17 05:18:34;;;;;;;3.98;2.17;;;;;;;9.10;100.00;98735.22;1780372;80;21041;-81
2024/04/17 05:21:02;;;;;;;4.33;2.20;;;;;;;9.15;100.00;98748.19;1780547;80;21503;-82
2024/04/17 05:23:31;;;;;;;2.98;1.72;;;;;;;9.17;100.00;98757.83;1780536;80;21086;-82
2024/04/17 05:25:59;;;;;;;4.50;2.10;;;;;;;9.15;100.00;98755.02;1780797;80;21067;-83
2024/04/17 05:28:28;;;;;;;2.92;1.90;;;;;;;9.13;100.00;98755.25;1782847;80;21021;-82
2024/04/17 05:30:59;;;;;;;3.02;1.87;;;;;;;9.11;100.00;98760.11;1781415;80;21064;-82
2024/04/17 05:33:27;;;;;;;6.08;2.20;;;;;;;9.10;100.00;98742.05;1780589;80;21064;-74
2024/04/17 05:35:56;;;;;;;2.90;2.17;;;;;;;9.12;100.00;98744.02;1780295;80;21555;-73
2024/04/17 05:38:24;;;;;;;5.75;3.40;;;;;;;9.09;100.00;98751.27;1780297;80;21064;-74
2024/04/17 05:40:53;;;;;;;5.92;3.00;;;;;;;9.03;100.00;98754.09;1780359;80;21287;-74
2024/04/17 05:43:22;;;;;;;3.47;3.05;;;;;;;8.99;100.00;98761.90;1780550;80;21102;-73
2024/04/17 05:45:51;;;;;;;6.35;3.55;;;;;;;8.95;99.69;98781.17;1780439;80;21052;-74
2024/04/17 05:48:19;;;;;;;3.80;3.00;;;;;;;8.92;99.46;98788.98;1780409;80;21017;-76
2024/04/17 05:50:48;;;;;;;4.58;3.05;;;;;;;8.93;99.57;98778.36;1780396;80;21024;-74
2024/04/17 05:53:16;;;;;;;4.22;2.98;;;;;;;8.90;99.20;98782.38;1780978;80;21441;-74
2024/04/17 05:55:45;;;;;;;5.08;3.87;;;;;;;8.88;99.25;98785.34;1780530;80;20993;-74
2024/04/17 05:58:13;;;;;;;8.25;4.12;;;;;;;8.89;99.30;98787.54;1761155;80;21025;-74
2024/04/17 06:00:42;;;;;;;6.67;3.95;;;;;;;8.90;99.39;98798.77;1780471;80;21048;-75
2024/04/17 06:03:10;;;;;;;8.65;4.42;;;;;;;8.89;99.52;98800.66;1780653;80;21016;-76
2024/04/17 06:05:43;;;;;;;5.17;3.83;;;;;;;8.89;99.65;98799.30;1780696;80;21020;-74
2024/04/17 06:08:11;;;;;;;7.20;4.95;;;;;;;8.88;99.67;98807.72;1761099;80;21476;-75
2024/04/17 06:10:40;;;;;;;11.88;5.45;;;;;;;8.82;99.67;98816.81;1780512;80;21028;-73
2024/04/17 06:13:08;;;;;;;9.00;4.97;;;;;;;8.77;99.74;98824.31;1780485;80;21033;-72
2024/04/17 06:15:36;;;;;;;7.55;5.42;;;;;;;8.77;100.00;98831.67;1775608;80;21052;-73
2024/04/17 06:18:06;;;;;;;8.60;5.95;;;;;;;8.79;100.00;98835.84;1774599;81;21013;-72
2024/04/17 06:20:35;;;;;;;6.75;5.25;;;;;;;8.80;100.00;98844.88;1774399;81;21067;-73
2024/04/17 06:23:04;;;;;;;7.83;5.58;;;;;;;8.79;100.00;98841.84;1774627;81;21445;-73
2024/04/17 06:25:33;;;;;;;6.85;5.50;;;;;;;8.80;100.00;98849.81;1774404;81;21490;-74
2024/04/17 06:28:02;;;;;;;7.53;5.40;;;;;;;8.82;100.00;98857.78;1774568;81;21405;-75
2024/04/17 06:30:30;;;;;;;9.25;6.03;;;;;;;8.79;100.00;98862.33;1774476;80;21069;-75
2024/04/17 06:32:59;;;;;;;8.13;5.90;;;;;;;8.75;100.00;98865.20;1744974;81;21001;-75
2024/04/17 06:35:28;;;;;;;9.50;6.17;;;;;;;8.72;100.00;98861.02;1774731;81;21013;-74
2024/04/17 06:37:56;;;;;;;9.20;5.67;;;;;;;8.72;100.00;98861.55;1774707;81;21009;-74
2024/04/17 06:40:25;;;;;;;8.05;5.97;;;;;;;8.72;100.00;98872.47;1774424;80;21154;-75
2024/04/17 06:42:54;;;;;;;8.40;5.87;;;;;;;8.72;100.00;98873.30;1774563;81;21020;-78
2024/04/17 06:45:22;;;;;;;8.10;6.08;;;;;;;8.69;100.00;98885.20;1745070;81;21017;-76
2024/04/17 06:47:51;;;;;;;9.30;6.33;;;;;;;8.70;100.00;98892.33;1774721;80;21021;-75
2024/04/17 06:50:20;;;;;;;12.10;6.28;;;;;;;8.73;100.00;98895.45;1774631;81;21426;-76
2024/04/17 06:52:49;;;;;;;9.73;6.47;;;;;;;8.75;100.00;98893.87;1774434;81;21021;-79
2024/04/17 06:55:17;;;;;;;8.43;6.25;;;;;;;8.77;100.00;98893.11;1774592;81;21001;-76
2024/04/17 06:57:49;;;;;;;9.98;6.33;;;;;;;8.81;100.00;98890.24;1774621;81;21045;-78
2024/04/17 07:00:17;;;;;;;10.90;7.08;;;;;;;8.81;100.00;98889.72;1774515;80;21017;-77
2024/04/17 07:02:46;;;;;;;9.13;6.20;;;;;;;8.82;100.00;98897.38;1774443;81;21058;-74
2024/04/17 07:05:17;;;;;;;10.78;6.70;;;;;;;8.83;100.00;98896.31;1773191;80;21053;-76
2024/04/17 07:07:45;;;;;;;8.43;6.50;;;;;;;8.82;100.00;98899.58;1774392;80;21040;-77
2024/04/17 07:10:14;;;;;;;10.72;6.70;;;;;;;8.80;100.00;98897.59;1774486;81;21049;-75
2024/04/17 07:12:42;;;;;;;10.82;6.50;;;;;;;8.82;100.00;98896.02;1774403;81;21473;-76
2024/04/17 07:15:11;;;;;;;8.33;5.55;;;;;;;8.83;100.00;98888.13;1766005;80;21452;-76
2024/04/17 07:17:39;;;;;;;9.18;5.37;;;;;;;8.83;100.00;98886.23;1756628;80;21096;-75
2024/04/17 07:20:08;;;;;;;10.60;6.05;;;;;;;8.86;100.00;98885.78;1756374;81;21037;-78
2024/04/17 07:22:38;;;;;;;11.35;6.30;;;;;;;8.84;100.00;98878.34;1756597;82;21024;-75
2024/04/17 07:25:07;;;;;;;9.83;5.97;;;;;;;8.85;100.00;98873.19;1756489;80;21017;-78
2024/04/17 07:27:36;;;;;;;12.18;6.55;;;;;;;8.86;100.00;98867.20;1756420;81;20987;-75
2024/04/17 07:30:07;;;;;;;11.05;6.60;;;;;;;8.85;100.00;98868.25;1710723;82;21050;-77
2024/04/17 07:32:35;;;;;;;9.33;6.12;;;;;;;8.84;100.00;98870.67;1756386;81;21453;-75
2024/04/17 07:35:06;;;;;;;10.13;6.12;;;;;;;8.79;100.00;98867.25;1756458;82;20990;-75
2024/04/17 07:37:35;;;;;;;7.08;5.05;;;;;;;8.78;100.00;98867.48;1756476;80;21017;-74
2024/04/17 07:40:05;;;;;;;11.08;6.72;;;;;;;8.77;100.00;98875.36;1756634;82;21520;-74
2024/04/17 07:42:33;;;;;;;7.85;5.50;;;;;;;8.71;100.00;98868.06;1756411;81;21077;-74
2024/04/17 07:45:02;;;;;;;8.70;5.67;;;;;;;8.71;100.00;98872.16;1756518;82;21014;-73
2024/04/17 07:47:30;;;;;;;10.40;5.97;;;;;;;8.71;100.00;98866.17;1756373;82;21441;-72
2024/04/17 07:49:59;;;;;;;9.68;6.30;;;;;;;8.73;100.00;98864.58;1756529;82;21057;-74
2024/04/17 07:52:28;;;;;;;12.20;6.47;;;;;;;8.74;100.00;98862.99;1756372;80;21017;-71
2024/04/17 07:54:57;;;;;;;9.93;7.10;;;;;;;8.78;100.00;98862.02;1756156;81;21033;-73
2024/04/17 07:57:26;;;;;;;11.78;7.15;;;;;;;8.81;100.00;98859.67;1756454;82;21025;-71
2024/04/17 07:59:55;;;;;;;9.18;6.45;;;;;;;8.86;100.00;98856.27;1747927;81;21035;-74
2024/04/17 08:02:25;;;;;;;11.03;6.87;;;;;;;8.88;100.00;98853.62;1712837;82;21081;-74
2024/04/17 08:04:57;;;;;;;10.25;6.50;;;;;;;8.89;100.00;98847.63;1753134;81;21027;-75
2024/04/17 08:07:30;;;;;;;12.03;7.05;;;;;;;8.90;100.00;98852.03;1774051;81;21001;-74
2024/04/17 08:09:58;;;;;;;11.35;7.83;;;;;;;8.90;100.00;98841.10;1706763;82;21076;-75
2024/04/17 08:12:27;;;;;;;14.85;8.35;;;;;;;8.89;100.00;98844.36;1708379;83;21098;-72
2024/04/17 08:14:56;;;;;;;14.78;8.55;;;;;;;8.94;100.00;98842.33;1724398;81;21097;-71
2024/04/17 08:17:25;;;;;;;13.62;8.03;;;;;;;8.99;100.00;98843.02;1754287;80;21030;-72
2024/04/17 08:19:53;;;;;;;12.45;7.95;;;;;;;8.95;100.00;98842.63;1738179;82;21044;-73
2024/04/17 08:22:22;;;;;;;15.08;8.43;;;;;;;8.97;100.00;98832.84;1738047;82;21007;-73
2024/04/17 08:24:51;;;;;;;14.68;9.15;;;;;;;9.00;100.00;98822.30;1737982;82;21072;-71
2024/04/17 08:27:19;;;;;;;15.55;9.43;;;;;;;9.00;100.00;98819.57;1772327;80;20980;-73
2024/04/17 08:29:48;;;;;;;177.57;108.05;;;;;;;9.04;100.00;98824.88;1772773;80;21059;-71
2024/04/17 08:32:16;;;;;;;29.77;16.12;;;;;;;9.11;100.00;98823.48;1772802;81;21035;-73
2024/04/17 08:34:45;;;;;;;14.13;10.03;;;;;;;9.17;100.00;98831.59;1779841;80;21036;-75
2024/04/17 08:37:15;;;;;;;15.32;10.15;;;;;;;9.23;100.00;98824.92;1763477;80;21423;-76
2024/04/17 08:39:44;;;;;;;15.80;11.15;;;;;;;9.25;100.00;98818.70;1760760;81;21025;-75
2024/04/17 08:42:17;;;;;;;16.57;11.33;;;;;;;9.28;100.00;98816.88;1777577;81;21044;-77
2024/04/17 08:44:46;;;;;;;18.90;12.18;;;;;;;9.28;100.00;98816.34;1777796;81;21024;-77
2024/04/17 08:47:14;;;;;;;18.25;11.33;;;;;;;9.26;100.00;98822.57;1777796;81;21064;-76
2024/04/17 08:49:43;;;;;;;19.87;12.03;;;;;;;9.20;100.00;98818.84;1777474;81;21108;-76
2024/04/17 08:52:12;;;;;;;17.98;11.85;;;;;;;9.15;100.00;98815.12;1777634;81;21623;-75
2024/04/17 08:54:43;;;;;;;17.20;11.55;;;;;;;9.14;100.00;98825.23;1777542;81;21064;-76
2024/04/17 08:57:11;;;;;;;18.05;12.45;;;;;;;9.15;100.00;98826.89;1777726;81;21033;-73
2024/04/17 08:59:39;;;;;;;20.72;12.55;;;;;;;9.18;100.00;98833.80;1777594;80;21092;-73
2024/04/17 09:02:13;;;;;;;21.30;13.70;;;;;;;9.19;100.00;98837.67;1777589;80;21067;-76
2024/04/17 09:04:45;;;;;;;18.87;12.07;;;;;;;9.23;100.00;98832.59;1777624;81;21499;-75
2024/04/17 09:07:14;;;;;;;14.85;10.63;;;;;;;9.22;100.00;98833.66;1777641;81;21513;-73
2024/04/17 09:09:42;;;;;;;22.50;11.40;;;;;;;9.17;100.00;98838.44;1777815;80;21080;-76
2024/04/17 09:12:12;;;;;;;20.82;12.30;;;;;;;9.05;100.00;98837.48;1777641;81;21042;-77
2024/04/17 09:14:40;;;;;;;18.57;11.95;;;;;;;9.03;100.00;98838.77;1777200;81;21068;-74
2024/04/17 09:17:12;;;;;;;21.27;12.35;;;;;;;9.03;100.00;98831.94;1745453;81;21038;-74
2024/04/17 09:19:40;;;;;;;22.45;14.70;;;;;;;9.02;100.00;98824.80;1747949;82;21527;-76
2024/04/17 09:22:09;;;;;;;16.10;9.95;;;;;;;9.05;100.00;98842.95;1748106;82;21030;-77
2024/04/17 09:24:39;;;;;;;15.32;11.05;;;;;;;9.08;100.00;98838.92;1747855;81;21033;-77
2024/04/17 09:27:12;;;;;;;13.70;8.78;;;;;;;9.06;100.00;98830.95;1747826;82;21469;-77
2024/04/17 09:29:41;;;;;;;12.60;8.15;;;;;;;9.06;100.00;98836.95;1747951;81;21050;-76
2024/04/17 09:32:14;;;;;;;11.70;8.20;;;;;;;9.05;100.00;98833.38;1748007;82;21065;-75
2024/04/17 09:34:43;;;;;;;13.25;7.95;;;;;;;9.05;100.00;98840.21;1747906;82;21077;-76
2024/04/17 09:37:12;;;;;;;11.20;7.60;;;;;;;9.07;100.00;98842.19;1748165;82;21002;-74
2024/04/17 09:39:41;;;;;;;10.60;7.50;;;;;;;9.09;100.00;98841.96;1729182;81;22011;-75
2024/04/17 09:42:10;;;;;;;13.10;8.13;;;;;;;9.05;100.00;98834.75;1747959;81;21486;-74
2024/04/17 09:44:39;;;;;;;11.75;8.13;;;;;;;9.03;100.00;98831.41;1747954;81;21531;-76
2024/04/17 09:47:12;;;;;;;14.18;8.45;;;;;;;9.05;100.00;98846.20;1748240;82;21065;-75
2024/04/17 09:49:47;;;;;;;13.25;9.28;;;;;;;9.10;100.00;98850.46;1747927;82;21583;-74
2024/04/17 09:52:18;;;;;;;13.28;8.13;;;;;;;9.14;100.00;98863.48;1747825;81;21656;-75
2024/04/17 09:54:47;;;;;;;11.55;7.92;;;;;;;9.15;100.00;98862.95;1748142;81;21710;-74
2024/04/17 09:57:15;;;;;;;12.40;8.08;;;;;;;9.12;100.00;98871.06;1747963;81;21041;-75
2024/04/17 09:59:44;;;;;;;12.43;8.25;;;;;;;9.09;100.00;98866.55;1747959;81;21093;-74
2024/04/17 10:02:17;;;;;;;13.48;8.35;;;;;;;9.05;100.00;98870.27;1748034;81;21105;-77
2024/04/17 10:04:46;;;;;;;14.15;9.55;;;;;;;9.04;100.00;98875.42;1747753;82;21122;-74
2024/04/17 10:07:16;;;;;;;17.10;10.60;;;;;;;9.06;100.00;98877.40;1748372;82;21105;-73
2024/04/17 10:09:46;;;;;;;19.00;13.15;;;;;;;9.05;100.00;98879.83;1775258;79;21463;-74
2024/04/17 10:12:14;;;;;;;20.17;12.07;;;;;;;9.06;100.00;98880.13;1796969;80;21018;-76
2024/04/17 10:14:43;;;;;;;19.77;12.37;;;;;;;9.05;100.00;98881.19;1797010;80;21035;-75
2024/04/17 10:17:12;;;;;;;21.12;13.22;;;;;;;9.04;100.00;98882.25;1802448;79;21109;-75
2024/04/17 10:19:53;;;;;;;20.50;13.43;;;;;;;9.07;100.00;98893.26;1803406;79;21075;-75
2024/04/17 10:22:22;;;;;;;22.52;14.07;;;;;;;9.04;100.00;98897.28;1802940;79;21034;-75
2024/04/17 10:24:51;;;;;;;57.93;35.55;;;;;;;9.05;100.00;98888.55;1781127;79;21528;-74
2024/04/17 10:27:22;;;;;;;29.48;18.17;;;;;;;9.09;100.00;98885.67;1802954;79;21486;-74
2024/04/17 10:29:51;;;;;;;25.50;15.85;;;;;;;9.09;100.00;98879.68;1781474;79;21111;-74
2024/04/17 10:32:19;;;;;;;22.98;15.88;;;;;;;9.12;100.00;98881.99;1781446;79;20995;-74
2024/04/17 10:34:51;;;;;;;53.90;30.27;;;;;;;9.16;100.00;98872.28;1803019;79;21027;-75
2024/04/17 10:37:19;;;;;;;47.55;30.40;;;;;;;9.20;100.00;98874.87;1802899;79;20976;-74
2024/04/17 10:39:49;;;;;;;22.90;14.43;;;;;;;9.24;100.00;98864.84;1803068;79;21063;-71
2024/04/17 10:42:18;;;;;;;24.50;15.20;;;;;;;9.30;100.00;98869.41;1780878;79;21581;-75
2024/04/17 10:44:51;;;;;;;20.10;12.25;;;;;;;9.39;100.00;98870.78;1802835;79;21456;-73
2024/04/17 10:47:27;;;;;;;16.42;10.10;;;;;;;9.43;100.00;98870.09;1803112;79;20981;-72
2024/04/17 10:50:01;;;;;;;13.78;10.03;;;;;;;9.49;100.00;98882.85;1803068;79;21097;-74
2024/04/17 10:52:31;;;;;;;14.00;9.93;;;;;;;9.52;100.00;98881.56;1802733;79;21011;-69
2024/04/17 10:55:03;;;;;;;12.25;10.10;;;;;;;9.55;100.00;98874.27;1803129;79;21043;-74
2024/04/17 10:57:32;;;;;;;15.00;10.60;;;;;;;9.57;100.00;98876.24;1781073;79;21059;-74
2024/04/17 11:00:01;;;;;;;16.65;11.45;;;;;;;9.61;100.00;98870.62;1802854;79;21035;-74
2024/04/17 11:02:30;;;;;;;16.23;10.50;;;;;;;9.69;100.00;98868.94;1802950;79;21012;-73
2024/04/17 11:04:59;;;;;;;13.38;9.48;;;;;;;9.77;100.00;98885.06;1802852;79;21035;-74
2024/04/17 11:07:27;;;;;;;12.07;8.78;;;;;;;9.80;100.00;98887.34;1781113;79;21011;-76
2024/04/17 11:09:56;;;;;;;14.83;9.40;;;;;;;9.86;100.00;98881.48;1745937;82;21030;-72
2024/04/17 11:12:25;;;;;;;10.98;8.03;;;;;;;9.87;100.00;98898.73;1745743;82;21503;-77
2024/04/17 11:15:00;;;;;;;13.10;9.00;;;;;;;9.88;100.00;98894.93;1746069;82;21025;-77
2024/04/17 11:17:29;;;;;;;13.80;8.90;;;;;;;9.96;100.00;98903.66;1726748;81;21117;-75
2024/04/17 11:19:58;;;;;;;14.45;9.33;;;;;;;10.15;100.00;98897.08;1703741;83;21074;-75
2024/04/17 11:22:27;;;;;;;12.07;8.75;;;;;;;10.16;100.00;98896.02;1728901;80;21011;-75
2024/04/17 11:24:58;;;;;;;14.35;9.13;;;;;;;10.14;100.00;98898.15;1746651;82;21567;-75
2024/04/17 11:27:27;;;;;;;13.05;8.95;;;;;;;10.11;100.00;98904.62;1754702;80;21466;-73
2024/04/17 11:29:56;;;;;;;12.10;8.68;;;;;;;10.07;99.78;98900.67;1732668;81;21086;-73
2024/04/17 11:32:27;;;;;;;14.05;8.23;;;;;;;9.97;98.51;98901.22;1755407;82;21089;-73
2024/04/17 11:34:55;;;;;;;10.40;6.78;;;;;;;9.88;98.13;98915.45;1733208;81;21093;-74
2024/04/17 11:37:24;;;;;;;10.55;7.78;;;;;;;9.82;97.83;98919.41;1755367;82;21074;-75
2024/04/17 11:39:52;;;;;;;11.45;7.65;;;;;;;9.75;97.33;98924.62;1755560;82;21038;-72